Keum Yang Family — DSNO8 — position and weather

sailwx.info

Track history (hours):
 
Tides and Currents Weather Stations Pressure Air Temp Water Temp Dewpoint Dewpoint Depression Visibility Wind Speed Wind Dir Waves Ship Positions

Keum Yang Family

Last reported at 2016-Sep-24 19:33 UTC. Time now 2016-Sep-25 00:22 UTC.
Position N 34°37' E 135°02'.

Length 95 m; draft 4.1 m.

Type: Cargo ship. MMSI: 441416000.

Date/timePositionNaut miles runAvg speedWind from/ knotsBaromVisibWave heightAir tempDewpointWater temp
2016-Sep-24 19:33N 34°37' E 135°02'9 8.9
2016-Sep-24 18:33N 34°28' E 135°03'1210.9
2016-Sep-24 17:30N 34°17' E 134°59'1010.3
2016-Sep-24 16:33N 34°07' E 134°59'239 8.8
2016-Sep-23 13:28N 35°06' E 139°41'24 6.0
2016-Sep-23 09:33N 35°30' E 139°46'0 0.0
2016-Sep-23 06:33N 35°30' E 139°46'0 0.0
2016-Sep-23 04:33N 35°30' E 139°46'0 0.0
2016-Sep-23 03:33N 35°30' E 139°46'0 0.0
2016-Sep-23 02:30N 35°30' E 139°46'0 0.0
2016-Sep-23 01:33N 35°30' E 139°46'0 0.0
2016-Sep-23 00:33N 35°30' E 139°46'0 0.0
2016-Sep-22 23:33N 35°30' E 139°46'2 0.8
2016-Sep-22 20:33N 35°28' E 139°48'0 0.0
2016-Sep-22 12:33N 35°28' E 139°48'0 0.0
2016-Sep-22 04:33N 35°28' E 139°48'0 0.0
2016-Sep-22 03:33N 35°28' E 139°48'0 0.0
2016-Sep-22 00:33N 35°28' E 139°48'0 0.0
2016-Sep-21 23:33N 35°28' E 139°48'0 0.0
2016-Sep-21 22:34N 35°28' E 139°48'0 0.0
2016-Sep-21 19:33N 35°28' E 139°48'0 0.0
2016-Sep-21 16:33N 35°28' E 139°48'0 0.0
2016-Sep-21 09:34N 35°28' E 139°48'0 0.0
2016-Sep-21 08:33N 35°28' E 139°48'0 0.0
2016-Sep-21 05:33N 35°28' E 139°48'0 0.0
2016-Sep-21 03:33N 35°28' E 139°48'0 0.0
2016-Sep-21 02:33N 35°28' E 139°48'0 0.0
2016-Sep-20 17:33N 35°28' E 139°48'0 0.0
2016-Sep-20 14:33N 35°28' E 139°48'0 0.0
2016-Sep-20 13:33N 35°28' E 139°48'0 0.0
2016-Sep-20 10:31N 35°28' E 139°48'0 0.0
2016-Sep-20 08:31N 35°28' E 139°48'0 0.0
2016-Sep-20 07:31N 35°28' E 139°48'0 0.0
2016-Sep-20 06:31N 35°28' E 139°48'0 0.0
2016-Sep-20 02:31N 35°28' E 139°48'0 0.0
2016-Sep-19 23:31N 35°28' E 139°48'0 0.0
2016-Sep-19 19:31N 35°28' E 139°48'0 0.0
2016-Sep-19 18:31N 35°28' E 139°48'0 0.0
2016-Sep-19 16:31N 35°28' E 139°48'0 0.0
2016-Sep-19 14:28N 35°28' E 139°48'0 0.0
2016-Sep-19 13:31N 35°28' E 139°48'0 0.0
2016-Sep-19 12:28N 35°28' E 139°48'0 0.0
2016-Sep-19 11:31N 35°28' E 139°48'0 0.0
2016-Sep-19 09:31N 35°28' E 139°48'0 0.0
2016-Sep-19 07:31N 35°28' E 139°48'0 0.0
2016-Sep-19 06:31N 35°28' E 139°48'0 0.0
2016-Sep-19 03:25N 35°28' E 139°48'0 0.0
2016-Sep-19 02:19N 35°28' E 139°48'0 0.0
2016-Sep-19 00:31N 35°28' E 139°48'0 0.0
2016-Sep-18 19:28N 35°29' E 139°48'0 0.0
2016-Sep-18 15:28N 35°28' E 139°48'0 0.0
2016-Sep-18 14:31N 35°28' E 139°48'0 0.0
2016-Sep-18 10:28N 35°29' E 139°48'0 0.0
2016-Sep-18 09:31N 35°29' E 139°48'0 0.0
2016-Sep-18 02:31N 35°29' E 139°48'0 0.0
2016-Sep-18 01:31N 35°29' E 139°48'0 0.0
2016-Sep-18 00:31N 35°29' E 139°48'0 0.0
2016-Sep-17 22:28N 35°29' E 139°48'0 0.0
2016-Sep-17 21:31N 35°29' E 139°48'0 0.0
2016-Sep-17 20:31N 35°29' E 139°48'0 0.0
2016-Sep-17 19:16N 35°29' E 139°48'0 0.0
2016-Sep-17 13:31N 35°29' E 139°48'0 0.0
2016-Sep-17 12:32N 35°28' E 139°48'0 0.0
2016-Sep-17 10:31N 35°28' E 139°48'0 0.0
2016-Sep-17 09:31N 35°29' E 139°48'0 0.0
2016-Sep-17 08:31N 35°29' E 139°48'0 0.0
2016-Sep-17 07:31N 35°29' E 139°48'0 0.0
2016-Sep-17 05:31N 35°29' E 139°48'0 0.1
2016-Sep-17 04:31N 35°29' E 139°48'0 0.0
2016-Sep-17 00:28N 35°28' E 139°48'0 0.0
2016-Sep-16 17:31N 35°29' E 139°48'0 0.0
2016-Sep-16 15:31N 35°28' E 139°48'0 0.0
2016-Sep-16 12:31N 35°28' E 139°48'0 0.0
2016-Sep-16 09:31N 35°28' E 139°48'0 0.0
2016-Sep-16 07:31N 35°29' E 139°48'10 2.5
2016-Sep-16 03:33N 35°35' E 139°56'5 4.8
2016-Sep-16 02:33N 35°40' E 139°56'0 0.0
2016-Sep-16 00:19N 35°40' E 139°56'0 0.0
2016-Sep-15 22:33N 35°40' E 139°56'5 4.6
2016-Sep-15 21:33N 35°36' E 139°58'0 0.2
2016-Sep-15 20:31N 35°36' E 139°58'0 0.0
2016-Sep-15 18:33N 35°36' E 139°58'0 0.0
2016-Sep-15 12:31N 35°36' E 139°58'0 0.0
2016-Sep-15 11:25N 35°36' E 139°58'0 0.0
2016-Sep-15 04:31N 35°36' E 139°58'0 0.0
2016-Sep-15 03:25N 35°36' E 139°58'0 0.0
2016-Sep-15 01:31N 35°36' E 139°58'0 0.0
2016-Sep-14 22:31N 35°36' E 139°58'0 0.0
2016-Sep-14 21:31N 35°36' E 139°58'  
Track history (hours):
 
Tides and Currents Weather Stations Pressure Air Temp Water Temp Dewpoint Dewpoint Depression Visibility Wind Speed Wind Dir Waves Ship Positions

Keum Yang Family

Last reported at 2016-Sep-24 19:33 UTC. Time now 2016-Sep-25 00:22 UTC.
Position N 34°37' E 135°02'.

Length 95 m; draft 4.1 m.

Type: Cargo ship. MMSI: 441416000.

Date/timePositionNaut miles runAvg speedWind from/ knotsBaromVisibWave heightAir tempDewpointWater temp
2016-Sep-24 19:33N 34°37' E 135°02'9 8.9
2016-Sep-24 18:33N 34°28' E 135°03'1210.9
2016-Sep-24 17:30N 34°17' E 134°59'1010.3
2016-Sep-24 16:33N 34°07' E 134°59'239 8.8
2016-Sep-23 13:28N 35°06' E 139°41'24 6.0
2016-Sep-23 09:33N 35°30' E 139°46'0 0.0
2016-Sep-23 06:33N 35°30' E 139°46'0 0.0
2016-Sep-23 04:33N 35°30' E 139°46'0 0.0
2016-Sep-23 03:33N 35°30' E 139°46'0 0.0
2016-Sep-23 02:30N 35°30' E 139°46'0 0.0
2016-Sep-23 01:33N 35°30' E 139°46'0 0.0
2016-Sep-23 00:33N 35°30' E 139°46'0 0.0
2016-Sep-22 23:33N 35°30' E 139°46'2 0.8
2016-Sep-22 20:33N 35°28' E 139°48'0 0.0
2016-Sep-22 12:33N 35°28' E 139°48'0 0.0
2016-Sep-22 04:33N 35°28' E 139°48'0 0.0
2016-Sep-22 03:33N 35°28' E 139°48'0 0.0
2016-Sep-22 00:33N 35°28' E 139°48'0 0.0
2016-Sep-21 23:33N 35°28' E 139°48'0 0.0
2016-Sep-21 22:34N 35°28' E 139°48'0 0.0
2016-Sep-21 19:33N 35°28' E 139°48'0 0.0
2016-Sep-21 16:33N 35°28' E 139°48'0 0.0
2016-Sep-21 09:34N 35°28' E 139°48'0 0.0
2016-Sep-21 08:33N 35°28' E 139°48'0 0.0
2016-Sep-21 05:33N 35°28' E 139°48'0 0.0
2016-Sep-21 03:33N 35°28' E 139°48'0 0.0
2016-Sep-21 02:33N 35°28' E 139°48'0 0.0
2016-Sep-20 17:33N 35°28' E 139°48'0 0.0
2016-Sep-20 14:33N 35°28' E 139°48'0 0.0
2016-Sep-20 13:33N 35°28' E 139°48'0 0.0
2016-Sep-20 10:31N 35°28' E 139°48'0 0.0
2016-Sep-20 08:31N 35°28' E 139°48'0 0.0
2016-Sep-20 07:31N 35°28' E 139°48'0 0.0
2016-Sep-20 06:31N 35°28' E 139°48'0 0.0
2016-Sep-20 02:31N 35°28' E 139°48'0 0.0
2016-Sep-19 23:31N 35°28' E 139°48'0 0.0
2016-Sep-19 19:31N 35°28' E 139°48'0 0.0
2016-Sep-19 18:31N 35°28' E 139°48'0 0.0
2016-Sep-19 16:31N 35°28' E 139°48'0 0.0
2016-Sep-19 14:28N 35°28' E 139°48'0 0.0
2016-Sep-19 13:31N 35°28' E 139°48'0 0.0
2016-Sep-19 12:28N 35°28' E 139°48'0 0.0
2016-Sep-19 11:31N 35°28' E 139°48'0 0.0
2016-Sep-19 09:31N 35°28' E 139°48'0 0.0
2016-Sep-19 07:31N 35°28' E 139°48'0 0.0
2016-Sep-19 06:31N 35°28' E 139°48'0 0.0
2016-Sep-19 03:25N 35°28' E 139°48'0 0.0
2016-Sep-19 02:19N 35°28' E 139°48'0 0.0
2016-Sep-19 00:31N 35°28' E 139°48'0 0.0
2016-Sep-18 19:28N 35°29' E 139°48'0 0.0
2016-Sep-18 15:28N 35°28' E 139°48'0 0.0
2016-Sep-18 14:31N 35°28' E 139°48'0 0.0
2016-Sep-18 10:28N 35°29' E 139°48'0 0.0
2016-Sep-18 09:31N 35°29' E 139°48'0 0.0
2016-Sep-18 02:31N 35°29' E 139°48'0 0.0
2016-Sep-18 01:31N 35°29' E 139°48'0 0.0
2016-Sep-18 00:31N 35°29' E 139°48'0 0.0
2016-Sep-17 22:28N 35°29' E 139°48'0 0.0
2016-Sep-17 21:31N 35°29' E 139°48'0 0.0
2016-Sep-17 20:31N 35°29' E 139°48'0 0.0
2016-Sep-17 19:16N 35°29' E 139°48'0 0.0
2016-Sep-17 13:31N 35°29' E 139°48'0 0.0
2016-Sep-17 12:32N 35°28' E 139°48'0 0.0
2016-Sep-17 10:31N 35°28' E 139°48'0 0.0
2016-Sep-17 09:31N 35°29' E 139°48'0 0.0
2016-Sep-17 08:31N 35°29' E 139°48'0 0.0
2016-Sep-17 07:31N 35°29' E 139°48'0 0.0
2016-Sep-17 05:31N 35°29' E 139°48'0 0.1
2016-Sep-17 04:31N 35°29' E 139°48'0 0.0
2016-Sep-17 00:28N 35°28' E 139°48'0 0.0
2016-Sep-16 17:31N 35°29' E 139°48'0 0.0
2016-Sep-16 15:31N 35°28' E 139°48'0 0.0
2016-Sep-16 12:31N 35°28' E 139°48'0 0.0
2016-Sep-16 09:31N 35°28' E 139°48'0 0.0
2016-Sep-16 07:31N 35°29' E 139°48'10 2.5
2016-Sep-16 03:33N 35°35' E 139°56'5 4.8
2016-Sep-16 02:33N 35°40' E 139°56'0 0.0
2016-Sep-16 00:19N 35°40' E 139°56'0 0.0
2016-Sep-15 22:33N 35°40' E 139°56'5 4.6
2016-Sep-15 21:33N 35°36' E 139°58'0 0.2
2016-Sep-15 20:31N 35°36' E 139°58'0 0.0
2016-Sep-15 18:33N 35°36' E 139°58'0 0.0
2016-Sep-15 12:31N 35°36' E 139°58'0 0.0
2016-Sep-15 11:25N 35°36' E 139°58'0 0.0
2016-Sep-15 04:31N 35°36' E 139°58'0 0.0
2016-Sep-15 03:25N 35°36' E 139°58'0 0.0
2016-Sep-15 01:31N 35°36' E 139°58'0 0.0
2016-Sep-14 22:31N 35°36' E 139°58'0 0.0
2016-Sep-14 21:31N 35°36' E 139°58'  

Dump ship's entire track history